sensor_id;sensor_type;location;lat;lon;timestamp;temperature;humidity
54788;DHT22;59598;48.112;16.280;2023-04-01T00:02:20;11.00;99.90
54788;DHT22;59598;48.112;16.280;2023-04-01T00:04:53;11.00;63.60
54788;DHT22;59598;48.112;16.280;2023-04-01T00:07:24;11.10;1.00
54788;DHT22;59598;48.112;16.280;2023-04-01T00:10:03;11.10;18.00
54788;DHT22;59598;48.112;16.280;2023-04-01T00:12:34;11.10;1.00
54788;DHT22;59598;48.112;16.280;2023-04-01T00:15:11;11.10;36.60
54788;DHT22;59598;48.112;16.280;2023-04-01T00:17:46;11.00;1.00
54788;DHT22;59598;48.112;16.280;2023-04-01T00:20:25;11.10;1.00
54788;DHT22;59598;48.112;16.280;2023-04-01T00:22:59;11.10;1.00
54788;DHT22;59598;48.112;16.280;2023-04-01T00:25:33;11.00;1.00
54788;DHT22;59598;48.112;16.280;2023-04-01T00:28:06;11.00;1.00
54788;DHT22;59598;48.112;16.280;2023-04-01T00:30:37;11.00;1.00
54788;DHT22;59598;48.112;16.280;2023-04-01T00:33:09;11.00;1.00
54788;DHT22;59598;48.112;16.280;2023-04-01T00:35:44;11.00;1.00
54788;DHT22;59598;48.112;16.280;2023-04-01T00:38:18;10.90;27.50
54788;DHT22;59598;48.112;16.280;2023-04-01T00:40:58;10.90;85.50
54788;DHT22;59598;48.112;16.280;2023-04-01T00:43:36;10.80;99.90
54788;DHT22;59598;48.112;16.280;2023-04-01T00:46:07;10.80;99.90
54788;DHT22;59598;48.112;16.280;2023-04-01T00:48:43;10.90;99.90
54788;DHT22;59598;48.112;16.280;2023-04-01T00:51:20;10.80;99.90
54788;DHT22;59598;48.112;16.280;2023-04-01T00:54:00;10.80;99.90
54788;DHT22;59598;48.112;16.280;2023-04-01T00:56:37;10.80;99.90
54788;DHT22;59598;48.112;16.280;2023-04-01T00:59:30;10.80;99.90
54788;DHT22;59598;48.112;16.280;2023-04-01T01:02:09;10.70;99.90
54788;DHT22;59598;48.112;16.280;2023-04-01T01:04:41;10.70;99.90
54788;DHT22;59598;48.112;16.280;2023-04-01T01:07:41;10.70;99.90
54788;DHT22;59598;48.112;16.280;2023-04-01T01:10:29;10.80;99.90
54788;DHT22;59598;48.112;16.280;2023-04-01T01:18:35;10.80;99.90
54788;DHT22;59598;48.112;16.280;2023-04-01T01:29:45;10.70;99.90
54788;DHT22;59598;48.112;16.280;2023-04-01T01:32:43;10.70;99.90
54788;DHT22;59598;48.112;16.280;2023-04-01T01:35:44;10.70;99.90
54788;DHT22;59598;48.112;16.280;2023-04-01T01:38:19;10.70;99.90
54788;DHT22;59598;48.112;16.280;2023-04-01T01:40:52;10.70;99.90
54788;DHT22;59598;48.112;16.280;2023-04-01T01:43:35;10.70;99.90
54788;DHT22;59598;48.112;16.280;2023-04-01T01:46:14;10.60;1.00
54788;DHT22;59598;48.112;16.280;2023-04-01T01:48:47;10.60;1.00
54788;DHT22;59598;48.112;16.280;2023-04-01T01:51:22;10.60;1.00
54788;DHT22;59598;48.112;16.280;2023-04-01T01:53:54;10.60;1.00
54788;DHT22;59598;48.112;16.280;2023-04-01T01:56:28;10.60;1.00
54788;DHT22;59598;48.112;16.280;2023-04-01T01:59:03;10.50;99.90
54788;DHT22;59598;48.112;16.280;2023-04-01T02:02:04;10.50;1.00
54788;DHT22;59598;48.112;16.280;2023-04-01T02:04:40;10.30;99.90
54788;DHT22;59598;48.112;16.280;2023-04-01T02:07:24;10.30;99.90
54788;DHT22;59598;48.112;16.280;2023-04-01T02:09:58;10.30;13.20
54788;DHT22;59598;48.112;16.280;2023-04-01T02:12:34;10.30;1.00
54788;DHT22;59598;48.112;16.280;2023-04-01T02:15:12;10.30;1.00
54788;DHT22;59598;48.112;16.280;2023-04-01T02:17:51;10.20;1.00
54788;DHT22;59598;48.112;16.280;2023-04-01T02:20:26;10.20;1.00
54788;DHT22;59598;48.112;16.280;2023-04-01T02:23:03;10.30;1.00
54788;DHT22;59598;48.112;16.280;2023-04-01T02:25:39;10.30;1.00
54788;DHT22;59598;48.112;16.280;2023-04-01T02:28:13;10.20;1.00
54788;DHT22;59598;48.112;16.280;2023-04-01T02:30:47;10.20;1.00
54788;DHT22;59598;48.112;16.280;2023-04-01T02:33:23;10.10;1.00
54788;DHT22;59598;48.112;16.280;2023-04-01T02:35:54;10.10;1.00
54788;DHT22;59598;48.112;16.280;2023-04-01T02:38:26;10.10;1.00
54788;DHT22;59598;48.112;16.280;2023-04-01T02:41:01;10.10;1.00
54788;DHT22;59598;48.112;16.280;2023-04-01T02:43:37;10.10;1.00
54788;DHT22;59598;48.112;16.280;2023-04-01T02:46:08;10.10;17.80
54788;DHT22;59598;48.112;16.280;2023-04-01T02:48:47;10.10;99.90
54788;DHT22;59598;48.112;16.280;2023-04-01T02:51:25;10.00;99.90
54788;DHT22;59598;48.112;16.280;2023-04-01T02:53:56;10.00;1.00
54788;DHT22;59598;48.112;16.280;2023-04-01T02:56:30;9.90;1.00
54788;DHT22;59598;48.112;16.280;2023-04-01T02:59:01;9.80;1.00
54788;DHT22;59598;48.112;16.280;2023-04-01T03:01:38;9.70;99.90
54788;DHT22;59598;48.112;16.280;2023-04-01T03:04:09;9.70;99.90
54788;DHT22;59598;48.112;16.280;2023-04-01T03:06:42;9.60;1.00
54788;DHT22;59598;48.112;16.280;2023-04-01T03:09:19;9.60;1.00
54788;DHT22;59598;48.112;16.280;2023-04-01T03:11:58;9.50;1.00
54788;DHT22;59598;48.112;16.280;2023-04-01T03:14:29;9.50;1.00
54788;DHT22;59598;48.112;16.280;2023-04-01T03:17:02;9.50;1.00
54788;DHT22;59598;48.112;16.280;2023-04-01T03:19:36;9.50;99.90
54788;DHT22;59598;48.112;16.280;2023-04-01T03:22:10;9.50;1.00
54788;DHT22;59598;48.112;16.280;2023-04-01T03:24:45;9.60;99.90
54788;DHT22;59598;48.112;16.280;2023-04-01T03:27:22;9.60;99.90
54788;DHT22;59598;48.112;16.280;2023-04-01T03:29:54;9.70;99.90
54788;DHT22;59598;48.112;16.280;2023-04-01T03:32:25;9.70;99.90
54788;DHT22;59598;48.112;16.280;2023-04-01T03:34:58;9.70;99.90
54788;DHT22;59598;48.112;16.280;2023-04-01T03:37:33;9.70;99.90
54788;DHT22;59598;48.112;16.280;2023-04-01T03:40:04;9.60;99.90
54788;DHT22;59598;48.112;16.280;2023-04-01T03:42:36;9.70;5.00
54788;DHT22;59598;48.112;16.280;2023-04-01T03:45:10;9.80;37.60
54788;DHT22;59598;48.112;16.280;2023-04-01T03:47:45;9.80;72.30
54788;DHT22;59598;48.112;16.280;2023-04-01T03:50:16;9.70;12.50
54788;DHT22;59598;48.112;16.280;2023-04-01T03:52:53;9.80;2.90
54788;DHT22;59598;48.112;16.280;2023-04-01T03:55:24;9.80;1.00
54788;DHT22;59598;48.112;16.280;2023-04-01T03:57:58;9.80;1.00
54788;DHT22;59598;48.112;16.280;2023-04-01T04:00:30;9.80;1.00
54788;DHT22;59598;48.112;16.280;2023-04-01T04:03:05;9.80;1.00
54788;DHT22;59598;48.112;16.280;2023-04-01T04:05:48;9.90;1.00
54788;DHT22;59598;48.112;16.280;2023-04-01T04:08:27;10.00;1.00
54788;DHT22;59598;48.112;16.280;2023-04-01T04:11:03;10.00;1.00
54788;DHT22;59598;48.112;16.280;2023-04-01T04:13:37;9.90;1.00
54788;DHT22;59598;48.112;16.280;2023-04-01T04:16:11;10.00;1.00
54788;DHT22;59598;48.112;16.280;2023-04-01T04:18:42;9.90;1.00
54788;DHT22;59598;48.112;16.280;2023-04-01T04:21:15;10.00;1.00
54788;DHT22;59598;48.112;16.280;2023-04-01T04:23:46;10.00;1.00
54788;DHT22;59598;48.112;16.280;2023-04-01T04:26:24;9.90;1.00
54788;DHT22;59598;48.112;16.280;2023-04-01T04:29:01;9.90;1.00
54788;DHT22;59598;48.112;16.280;2023-04-01T04:31:35;10.00;1.00
54788;DHT22;59598;48.112;16.280;2023-04-01T04:34:07;9.90;1.00
54788;DHT22;59598;48.112;16.280;2023-04-01T04:36:38;9.90;1.00
54788;DHT22;59598;48.112;16.280;2023-04-01T04:39:09;9.90;1.00
54788;DHT22;59598;48.112;16.280;2023-04-01T04:41:40;9.90;1.00
54788;DHT22;59598;48.112;16.280;2023-04-01T04:44:17;9.90;1.00
54788;DHT22;59598;48.112;16.280;2023-04-01T04:46:51;9.80;1.00
54788;DHT22;59598;48.112;16.280;2023-04-01T04:49:22;9.80;1.00
54788;DHT22;59598;48.112;16.280;2023-04-01T04:51:57;9.70;1.00
54788;DHT22;59598;48.112;16.280;2023-04-01T04:54:28;9.80;1.00
54788;DHT22;59598;48.112;16.280;2023-04-01T04:57:03;9.70;1.00
54788;DHT22;59598;48.112;16.280;2023-04-01T04:59:34;9.70;1.00
54788;DHT22;59598;48.112;16.280;2023-04-01T05:02:05;9.60;1.00
54788;DHT22;59598;48.112;16.280;2023-04-01T05:04:37;9.70;1.00
54788;DHT22;59598;48.112;16.280;2023-04-01T05:07:11;9.80;1.00
54788;DHT22;59598;48.112;16.280;2023-04-01T05:09:45;9.80;1.00
54788;DHT22;59598;48.112;16.280;2023-04-01T05:12:21;9.90;1.00
54788;DHT22;59598;48.112;16.280;2023-04-01T05:14:52;10.00;1.00
54788;DHT22;59598;48.112;16.280;2023-04-01T05:17:23;10.10;1.00
54788;DHT22;59598;48.112;16.280;2023-04-01T05:19:54;10.10;1.00
54788;DHT22;59598;48.112;16.280;2023-04-01T05:22:25;10.10;1.00
54788;DHT22;59598;48.112;16.280;2023-04-01T05:24:57;10.20;1.00
54788;DHT22;59598;48.112;16.280;2023-04-01T05:27:28;10.30;1.00
54788;DHT22;59598;48.112;16.280;2023-04-01T05:30:00;10.30;1.00
54788;DHT22;59598;48.112;16.280;2023-04-01T05:32:31;10.40;1.00
54788;DHT22;59598;48.112;16.280;2023-04-01T05:35:05;10.50;1.00
54788;DHT22;59598;48.112;16.280;2023-04-01T05:37:37;10.50;1.00
54788;DHT22;59598;48.112;16.280;2023-04-01T05:40:09;10.70;99.90
54788;DHT22;59598;48.112;16.280;2023-04-01T05:42:43;10.70;99.90
54788;DHT22;59598;48.112;16.280;2023-04-01T05:45:15;10.70;99.90
54788;DHT22;59598;48.112;16.280;2023-04-01T05:47:46;10.80;99.90
54788;DHT22;59598;48.112;16.280;2023-04-01T05:50:20;10.90;99.90
54788;DHT22;59598;48.112;16.280;2023-04-01T05:52:52;10.90;99.90
54788;DHT22;59598;48.112;16.280;2023-04-01T05:55:26;11.00;99.90
54788;DHT22;59598;48.112;16.280;2023-04-01T05:57:57;11.10;99.90
54788;DHT22;59598;48.112;16.280;2023-04-01T06:00:31;11.20;99.90
54788;DHT22;59598;48.112;16.280;2023-04-01T06:03:03;11.40;99.90
54788;DHT22;59598;48.112;16.280;2023-04-01T06:05:42;11.50;86.40
54788;DHT22;59598;48.112;16.280;2023-04-01T06:08:18;11.60;1.00
54788;DHT22;59598;48.112;16.280;2023-04-01T06:11:04;11.60;1.00
54788;DHT22;59598;48.112;16.280;2023-04-01T06:25:50;11.70;93.70
54788;DHT22;59598;48.112;16.280;2023-04-01T06:39:46;11.50;1.00
54788;DHT22;59598;48.112;16.280;2023-04-01T06:51:09;11.80;1.00
54788;DHT22;59598;48.112;16.280;2023-04-01T06:54:48;11.60;1.00
54788;DHT22;59598;48.112;16.280;2023-04-01T06:56:51;11.60;1.00
54788;DHT22;59598;48.112;16.280;2023-04-01T06:59:32;11.70;1.00
54788;DHT22;59598;48.112;16.280;2023-04-01T07:04:46;11.90;1.00
54788;DHT22;59598;48.112;16.280;2023-04-01T07:07:39;12.00;99.90
54788;DHT22;59598;48.112;16.280;2023-04-01T07:10:35;12.10;99.90
54788;DHT22;59598;48.112;16.280;2023-04-01T07:13:42;11.90;99.90
54788;DHT22;59598;48.112;16.280;2023-04-01T07:16:53;12.00;99.90
54788;DHT22;59598;48.112;16.280;2023-04-01T07:19:27;12.00;99.90
54788;DHT22;59598;48.112;16.280;2023-04-01T07:22:32;12.20;1.00
54788;DHT22;59598;48.112;16.280;2023-04-01T07:25:19;12.30;1.00
54788;DHT22;59598;48.112;16.280;2023-04-01T07:28:05;12.10;1.00
54788;DHT22;59598;48.112;16.280;2023-04-01T07:34:09;12.20;1.00
54788;DHT22;59598;48.112;16.280;2023-04-01T07:42:06;12.50;1.00
54788;DHT22;59598;48.112;16.280;2023-04-01T08:11:54;13.00;99.90
54788;DHT22;59598;48.112;16.280;2023-04-01T08:20:57;13.10;86.00
54788;DHT22;59598;48.112;16.280;2023-04-01T08:23:38;13.30;1.00
54788;DHT22;59598;48.112;16.280;2023-04-01T08:26:35;13.30;1.00
54788;DHT22;59598;48.112;16.280;2023-04-01T08:29:19;13.60;1.00
54788;DHT22;59598;48.112;16.280;2023-04-01T08:32:10;13.60;1.00
54788;DHT22;59598;48.112;16.280;2023-04-01T08:34:47;13.80;1.00
54788;DHT22;59598;48.112;16.280;2023-04-01T08:37:28;13.90;1.00
54788;DHT22;59598;48.112;16.280;2023-04-01T08:46:14;13.90;1.00
54788;DHT22;59598;48.112;16.280;2023-04-01T09:00:17;13.80;1.00
54788;DHT22;59598;48.112;16.280;2023-04-01T09:11:42;14.30;95.10
54788;DHT22;59598;48.112;16.280;2023-04-01T09:14:38;14.10;81.30
54788;DHT22;59598;48.112;16.280;2023-04-01T09:35:20;14.80;73.20
54788;DHT22;59598;48.112;16.280;2023-04-01T09:38:06;14.80;90.00
54788;DHT22;59598;48.112;16.280;2023-04-01T09:57:59;15.20;1.00
54788;DHT22;59598;48.112;16.280;2023-04-01T10:18:27;15.80;1.00
54788;DHT22;59598;48.112;16.280;2023-04-01T10:50:04;14.70;1.00
54788;DHT22;59598;48.112;16.280;2023-04-01T11:13:59;15.10;1.00
54788;DHT22;59598;48.112;16.280;2023-04-01T11:24:51;17.50;1.00
54788;DHT22;59598;48.112;16.280;2023-04-01T11:33:44;15.50;99.90
54788;DHT22;59598;48.112;16.280;2023-04-01T11:39:21;15.50;90.80
54788;DHT22;59598;48.112;16.280;2023-04-01T11:45:25;15.70;1.00
54788;DHT22;59598;48.112;16.280;2023-04-01T11:56:54;16.60;99.90
54788;DHT22;59598;48.112;16.280;2023-04-01T12:02:34;16.30;1.00
54788;DHT22;59598;48.112;16.280;2023-04-01T12:11:00;16.10;99.90
54788;DHT22;59598;48.112;16.280;2023-04-01T12:13:55;16.00;99.90
54788;DHT22;59598;48.112;16.280;2023-04-01T12:16:44;16.20;99.90
54788;DHT22;59598;48.112;16.280;2023-04-01T12:31:06;16.30;1.00
54788;DHT22;59598;48.112;16.280;2023-04-01T12:48:12;16.70;1.00
54788;DHT22;59598;48.112;16.280;2023-04-01T12:51:18;17.10;1.00
54788;DHT22;59598;48.112;16.280;2023-04-01T13:08:12;17.80;1.00
54788;DHT22;59598;48.112;16.280;2023-04-01T13:11:05;17.90;1.00
54788;DHT22;59598;48.112;16.280;2023-04-01T13:13:46;18.70;1.00
54788;DHT22;59598;48.112;16.280;2023-04-01T13:16:29;19.20;1.00
54788;DHT22;59598;48.112;16.280;2023-04-01T13:19:32;19.10;1.00
54788;DHT22;59598;48.112;16.280;2023-04-01T13:22:15;19.60;1.00
54788;DHT22;59598;48.112;16.280;2023-04-01T13:24:59;20.00;1.00
54788;DHT22;59598;48.112;16.280;2023-04-01T13:27:40;20.70;1.00
54788;DHT22;59598;48.112;16.280;2023-04-01T13:44:54;20.20;99.90
54788;DHT22;59598;48.112;16.280;2023-04-01T13:59:13;20.50;99.90
54788;DHT22;59598;48.112;16.280;2023-04-01T14:11:56;17.80;99.90
54788;DHT22;59598;48.112;16.280;2023-04-01T14:20:22;16.70;99.90
54788;DHT22;59598;48.112;16.280;2023-04-01T14:34:49;18.10;99.90
54788;DHT22;59598;48.112;16.280;2023-04-01T14:49:14;19.20;99.90
54788;DHT22;59598;48.112;16.280;2023-04-01T14:51:46;19.10;99.90
54788;DHT22;59598;48.112;16.280;2023-04-01T14:54:21;19.00;99.90
54788;DHT22;59598;48.112;16.280;2023-04-01T14:59:41;18.20;99.90
54788;DHT22;59598;48.112;16.280;2023-04-01T15:13:28;17.20;99.90
54788;DHT22;59598;48.112;16.280;2023-04-01T15:16:41;17.10;99.90
54788;DHT22;59598;48.112;16.280;2023-04-01T15:22:36;16.90;99.90
54788;DHT22;59598;48.112;16.280;2023-04-01T15:25:51;16.50;99.90
54788;DHT22;59598;48.112;16.280;2023-04-01T15:31:37;16.60;99.90
54788;DHT22;59598;48.112;16.280;2023-04-01T15:37:34;16.40;99.90
54788;DHT22;59598;48.112;16.280;2023-04-01T15:45:54;16.20;99.90
54788;DHT22;59598;48.112;16.280;2023-04-01T15:56:52;14.90;99.90
54788;DHT22;59598;48.112;16.280;2023-04-01T16:02:49;14.50;99.90
54788;DHT22;59598;48.112;16.280;2023-04-01T16:05:34;15.00;99.90
54788;DHT22;59598;48.112;16.280;2023-04-01T16:11:13;15.40;99.90
54788;DHT22;59598;48.112;16.280;2023-04-01T16:14:01;15.40;99.90
54788;DHT22;59598;48.112;16.280;2023-04-01T16:17:34;15.40;99.90
54788;DHT22;59598;48.112;16.280;2023-04-01T16:23:26;14.70;99.90
54788;DHT22;59598;48.112;16.280;2023-04-01T16:26:15;14.60;99.90
54788;DHT22;59598;48.112;16.280;2023-04-01T16:32:18;14.20;99.90
54788;DHT22;59598;48.112;16.280;2023-04-01T16:37:50;13.80;99.90
54788;DHT22;59598;48.112;16.280;2023-04-01T16:41:11;13.70;99.90
54788;DHT22;59598;48.112;16.280;2023-04-01T16:43:30;13.60;99.90
54788;DHT22;59598;48.112;16.280;2023-04-01T17:03:13;12.50;99.90
54788;DHT22;59598;48.112;16.280;2023-04-01T17:09:09;12.00;99.90
54788;DHT22;59598;48.112;16.280;2023-04-01T17:11:50;11.80;99.90
54788;DHT22;59598;48.112;16.280;2023-04-01T17:22:59;10.80;99.90
54788;DHT22;59598;48.112;16.280;2023-04-01T17:25:34;10.80;99.90
54788;DHT22;59598;48.112;16.280;2023-04-01T17:31:10;10.90;99.90
54788;DHT22;59598;48.112;16.280;2023-04-01T17:39:24;10.90;1.00
54788;DHT22;59598;48.112;16.280;2023-04-01T17:42:09;10.90;1.00
54788;DHT22;59598;48.112;16.280;2023-04-01T17:47:44;10.80;1.00
54788;DHT22;59598;48.112;16.280;2023-04-01T17:53:33;10.60;99.90
54788;DHT22;59598;48.112;16.280;2023-04-01T18:02:04;10.40;99.90
54788;DHT22;59598;48.112;16.280;2023-04-01T18:22:09;10.30;99.90
54788;DHT22;59598;48.112;16.280;2023-04-01T18:25:12;10.30;99.90
54788;DHT22;59598;48.112;16.280;2023-04-01T18:27:47;10.30;99.90
54788;DHT22;59598;48.112;16.280;2023-04-01T18:30:30;10.30;99.90
54788;DHT22;59598;48.112;16.280;2023-04-01T18:33:19;10.20;99.90
54788;DHT22;59598;48.112;16.280;2023-04-01T18:39:08;10.20;1.00
54788;DHT22;59598;48.112;16.280;2023-04-01T18:44:46;10.20;1.00
54788;DHT22;59598;48.112;16.280;2023-04-01T18:47:44;10.20;1.00
54788;DHT22;59598;48.112;16.280;2023-04-01T18:50:41;10.20;1.00
54788;DHT22;59598;48.112;16.280;2023-04-01T18:53:28;10.10;1.00
54788;DHT22;59598;48.112;16.280;2023-04-01T18:56:06;10.10;1.00
54788;DHT22;59598;48.112;16.280;2023-04-01T18:58:48;10.10;1.00
54788;DHT22;59598;48.112;16.280;2023-04-01T19:21:44;10.00;1.00
54788;DHT22;59598;48.112;16.280;2023-04-01T19:30:10;9.80;1.00
54788;DHT22;59598;48.112;16.280;2023-04-01T19:33:00;9.80;1.00
54788;DHT22;59598;48.112;16.280;2023-04-01T19:35:42;9.80;1.00
54788;DHT22;59598;48.112;16.280;2023-04-01T19:38:39;9.80;1.00
54788;DHT22;59598;48.112;16.280;2023-04-01T19:47:24;9.70;1.00
54788;DHT22;59598;48.112;16.280;2023-04-01T19:55:47;9.60;1.00
54788;DHT22;59598;48.112;16.280;2023-04-01T19:58:37;9.70;1.00
54788;DHT22;59598;48.112;16.280;2023-04-01T20:01:24;9.70;1.00
54788;DHT22;59598;48.112;16.280;2023-04-01T20:04:08;9.70;1.00
54788;DHT22;59598;48.112;16.280;2023-04-01T20:14:57;9.60;1.00
54788;DHT22;59598;48.112;16.280;2023-04-01T20:17:42;9.60;1.00
54788;DHT22;59598;48.112;16.280;2023-04-01T20:20:24;9.70;1.00
54788;DHT22;59598;48.112;16.280;2023-04-01T20:25:58;9.70;1.00
54788;DHT22;59598;48.112;16.280;2023-04-01T20:28:45;9.70;1.00
54788;DHT22;59598;48.112;16.280;2023-04-01T20:31:42;9.70;1.00
54788;DHT22;59598;48.112;16.280;2023-04-01T20:34:26;9.70;1.00
54788;DHT22;59598;48.112;16.280;2023-04-01T20:37:35;9.80;1.00
54788;DHT22;59598;48.112;16.280;2023-04-01T20:40:23;9.80;1.00
54788;DHT22;59598;48.112;16.280;2023-04-01T20:49:20;9.90;1.00
54788;DHT22;59598;48.112;16.280;2023-04-01T20:52:07;9.90;1.00
54788;DHT22;59598;48.112;16.280;2023-04-01T21:05:54;10.00;1.00
54788;DHT22;59598;48.112;16.280;2023-04-01T21:25:43;9.90;1.00
54788;DHT22;59598;48.112;16.280;2023-04-01T21:36:48;9.90;1.00
54788;DHT22;59598;48.112;16.280;2023-04-01T21:45:37;9.90;1.00
54788;DHT22;59598;48.112;16.280;2023-04-01T21:50:55;9.90;1.00
54788;DHT22;59598;48.112;16.280;2023-04-01T21:53:49;9.80;1.00
54788;DHT22;59598;48.112;16.280;2023-04-01T22:00:15;9.70;1.00
54788;DHT22;59598;48.112;16.280;2023-04-01T22:03:12;9.70;1.00
54788;DHT22;59598;48.112;16.280;2023-04-01T22:06:11;9.60;1.00
54788;DHT22;59598;48.112;16.280;2023-04-01T22:09:00;9.60;1.00
54788;DHT22;59598;48.112;16.280;2023-04-01T22:17:08;9.50;15.60
54788;DHT22;59598;48.112;16.280;2023-04-01T22:25:51;9.50;1.00
54788;DHT22;59598;48.112;16.280;2023-04-01T22:28:33;9.50;1.00
54788;DHT22;59598;48.112;16.280;2023-04-01T22:31:13;9.40;1.00
54788;DHT22;59598;48.112;16.280;2023-04-01T22:34:01;9.40;24.60
54788;DHT22;59598;48.112;16.280;2023-04-01T22:36:57;9.50;1.00
54788;DHT22;59598;48.112;16.280;2023-04-01T22:42:42;9.50;1.00
54788;DHT22;59598;48.112;16.280;2023-04-01T22:48:20;9.60;1.00
54788;DHT22;59598;48.112;16.280;2023-04-01T22:54:07;9.50;1.00
54788;DHT22;59598;48.112;16.280;2023-04-01T23:03:14;9.70;1.00
54788;DHT22;59598;48.112;16.280;2023-04-01T23:05:52;9.70;1.00
54788;DHT22;59598;48.112;16.280;2023-04-01T23:14:28;9.80;1.00
54788;DHT22;59598;48.112;16.280;2023-04-01T23:28:53;9.90;1.00
54788;DHT22;59598;48.112;16.280;2023-04-01T23:31:39;10.00;1.00
54788;DHT22;59598;48.112;16.280;2023-04-01T23:36:46;10.00;1.00
54788;DHT22;59598;48.112;16.280;2023-04-01T23:42:37;10.00;1.00
54788;DHT22;59598;48.112;16.280;2023-04-01T23:45:15;10.10;1.00
54788;DHT22;59598;48.112;16.280;2023-04-01T23:48:16;10.10;1.00
54788;DHT22;59598;48.112;16.280;2023-04-01T23:50:50;10.10;1.00
54788;DHT22;59598;48.112;16.280;2023-04-01T23:53:25;10.00;1.00
54788;DHT22;59598;48.112;16.280;2023-04-01T23:56:01;10.10;1.00
